createdAt,value
2023-05-17T00:00:04.632Z,5.63
2023-05-17T00:00:15.438Z,5.63
2023-05-17T00:00:27.119Z,5.63
2023-05-17T00:00:39.481Z,5.62
2023-05-17T00:00:51.933Z,5.62
2023-05-17T00:01:03.663Z,5.62
2023-05-17T00:01:14.491Z,5.62
2023-05-17T00:01:26.687Z,5.63
2023-05-17T00:01:38.857Z,5.63
2023-05-17T00:01:49.664Z,5.60
2023-05-17T00:02:02.074Z,5.62
2023-05-17T00:02:13.736Z,5.62
2023-05-17T00:02:26.042Z,5.62
2023-05-17T00:02:38.552Z,5.62
2023-05-17T00:02:50.971Z,5.62
2023-05-17T00:03:02.709Z,5.62
2023-05-17T00:03:15.102Z,5.59
2023-05-17T00:03:25.856Z,5.60
2023-05-17T00:03:37.608Z,5.59
2023-05-17T00:03:48.319Z,5.58
2023-05-17T00:03:59.989Z,5.59
2023-05-17T00:04:11.783Z,5.58
2023-05-17T00:04:23.549Z,5.55
2023-05-17T00:04:35.824Z,5.55
2023-05-17T00:04:48.252Z,5.55
2023-05-17T00:04:59.186Z,5.52
2023-05-17T00:05:10.056Z,5.52
2023-05-17T00:05:20.879Z,5.51
2023-05-17T00:05:32.597Z,5.51
2023-05-17T00:05:45.805Z,5.49
2023-05-17T00:05:57.997Z,5.49
2023-05-17T00:06:08.742Z,5.47
2023-05-17T00:06:19.538Z,5.47
2023-05-17T00:06:31.387Z,5.45
2023-05-17T00:06:42.194Z,5.44
2023-05-17T00:06:52.914Z,5.45
2023-05-17T00:07:03.694Z,5.45
2023-05-17T00:07:15.445Z,5.44
2023-05-17T00:07:27.152Z,5.44
2023-05-17T00:07:39.603Z,5.45
2023-05-17T00:07:50.395Z,5.45
2023-05-17T00:08:02.129Z,5.44
2023-05-17T00:08:14.650Z,5.44
2023-05-17T00:08:25.421Z,5.45
2023-05-17T00:08:37.136Z,5.45
2023-05-17T00:08:47.887Z,5.44
2023-05-17T00:08:58.631Z,5.42
2023-05-17T00:09:09.400Z,5.42
2023-05-17T00:09:21.155Z,5.42
2023-05-17T00:09:31.884Z,5.42
2023-05-17T00:09:42.628Z,5.41
2023-05-17T00:09:53.406Z,5.40
2023-05-17T00:10:05.090Z,5.40
2023-05-17T00:10:16.772Z,5.40
2023-05-17T00:10:29.178Z,5.40
2023-05-17T00:10:40.874Z,5.38
2023-05-17T00:10:51.635Z,5.41
2023-05-17T00:11:02.389Z,5.38
2023-05-17T00:11:13.151Z,5.38
2023-05-17T00:11:24.892Z,5.40
2023-05-17T00:11:35.639Z,5.37
2023-05-17T00:11:46.382Z,5.37
2023-05-17T00:11:57.111Z,5.37
2023-05-17T00:12:08.824Z,5.35
2023-05-17T00:12:20.594Z,5.35
2023-05-17T00:12:31.388Z,5.37
2023-05-17T00:12:42.142Z,5.35
2023-05-17T00:12:52.921Z,5.37
2023-05-17T00:13:04.659Z,5.37
2023-05-17T00:13:15.351Z,5.37
2023-05-17T00:13:26.054Z,5.38
2023-05-17T00:13:38.485Z,5.37
2023-05-17T00:13:49.204Z,5.40
2023-05-17T00:13:59.948Z,5.40
2023-05-17T00:14:10.681Z,5.40
2023-05-17T00:14:21.389Z,5.41
2023-05-17T00:14:32.140Z,5.41
2023-05-17T00:14:44.598Z,5.41
2023-05-17T00:14:56.406Z,5.41
2023-05-17T00:15:07.127Z,5.41
2023-05-17T00:15:17.913Z,5.41
2023-05-17T00:15:28.907Z,5.41
2023-05-17T00:15:40.757Z,5.40
2023-05-17T00:15:51.466Z,5.41
2023-05-17T00:16:03.913Z,5.41
2023-05-17T00:16:16.340Z,5.40
2023-05-17T00:16:29.537Z,5.40
2023-05-17T00:16:40.286Z,5.40
2023-05-17T00:16:51.037Z,5.40
2023-05-17T00:17:01.847Z,5.40
2023-05-17T00:17:12.574Z,5.41
2023-05-17T00:17:23.426Z,5.41
2023-05-17T00:17:34.326Z,5.41
2023-05-17T00:17:45.236Z,5.41
2023-05-17T00:17:56.068Z,5.40
2023-05-17T00:18:07.000Z,5.42
2023-05-17T00:18:17.953Z,5.42
2023-05-17T00:18:28.840Z,5.44
2023-05-17T00:18:40.711Z,5.44
2023-05-17T00:18:52.591Z,5.45
2023-05-17T00:19:03.549Z,5.47
2023-05-17T00:19:14.535Z,5.47
2023-05-17T00:19:25.876Z,5.47
2023-05-17T00:19:36.700Z,5.48
2023-05-17T00:19:49.180Z,5.48
2023-05-17T00:20:00.923Z,5.48
2023-05-17T00:20:11.624Z,5.48
2023-05-17T00:20:22.351Z,5.48
2023-05-17T00:20:33.069Z,5.48
2023-05-17T00:20:43.860Z,5.47
2023-05-17T00:20:55.605Z,5.47
2023-05-17T00:21:06.353Z,5.47
2023-05-17T00:21:17.062Z,5.45
2023-05-17T00:21:27.789Z,5.47
2023-05-17T00:21:39.476Z,5.47
2023-05-17T00:21:51.184Z,5.48
2023-05-17T00:22:01.873Z,5.48
2023-05-17T00:22:12.602Z,5.48
2023-05-17T00:22:23.344Z,5.48
2023-05-17T00:22:34.091Z,5.48
2023-05-17T00:22:45.805Z,5.49
2023-05-17T00:22:56.538Z,5.49
2023-05-17T00:23:07.234Z,5.48
2023-05-17T00:23:17.968Z,5.48
2023-05-17T00:23:29.712Z,5.48
2023-05-17T00:23:40.458Z,5.48
2023-05-17T00:23:51.154Z,5.47
2023-05-17T00:24:01.930Z,5.48
2023-05-17T00:24:12.584Z,5.48
2023-05-17T00:24:23.342Z,5.47
2023-05-17T00:24:34.063Z,5.48
2023-05-17T00:24:44.780Z,5.48
2023-05-17T00:24:55.489Z,5.48
2023-05-17T00:25:06.245Z,5.48
2023-05-17T00:25:16.999Z,5.47
2023-05-17T00:25:29.770Z,5.48
2023-05-17T00:25:40.762Z,5.49
2023-05-17T00:25:51.493Z,5.48
2023-05-17T00:26:02.213Z,5.51
2023-05-17T00:26:12.926Z,5.49
2023-05-17T00:26:25.332Z,5.51
2023-05-17T00:26:36.129Z,5.49
2023-05-17T00:26:47.838Z,5.51
2023-05-17T00:26:59.536Z,5.49
2023-05-17T00:27:10.251Z,5.49
2023-05-17T00:27:20.980Z,5.51
2023-05-17T00:27:31.729Z,5.49
2023-05-17T00:27:45.916Z,5.51
2023-05-17T00:27:58.327Z,5.52
2023-05-17T00:28:09.045Z,5.52
2023-05-17T00:28:19.801Z,5.52
2023-05-17T00:28:30.552Z,5.52
2023-05-17T00:28:41.256Z,5.52
2023-05-17T00:28:52.030Z,5.55
2023-05-17T00:29:04.285Z,5.56
2023-05-17T00:29:16.732Z,5.56
2023-05-17T00:29:27.434Z,5.56
2023-05-17T00:29:38.171Z,5.56
2023-05-17T00:29:51.352Z,5.55
2023-05-17T00:30:03.767Z,5.56
2023-05-17T00:30:14.498Z,5.55
2023-05-17T00:30:25.268Z,5.55
2023-05-17T00:30:37.687Z,5.52
2023-05-17T00:30:48.404Z,5.52
2023-05-17T00:31:00.084Z,5.52
2023-05-17T00:31:10.803Z,5.55
2023-05-17T00:31:22.535Z,5.52
2023-05-17T00:31:36.208Z,5.52
2023-05-17T00:31:47.005Z,5.52
2023-05-17T00:31:57.721Z,5.55
2023-05-17T00:32:09.404Z,5.52
2023-05-17T00:32:20.377Z,5.52
2023-05-17T00:32:31.171Z,5.51
2023-05-17T00:32:41.882Z,5.52
2023-05-17T00:32:52.673Z,5.51
2023-05-17T00:33:03.421Z,5.49
2023-05-17T00:33:15.113Z,5.51
2023-05-17T00:33:27.573Z,5.49
2023-05-17T00:33:38.352Z,5.49
2023-05-17T00:33:51.558Z,5.49
2023-05-17T00:34:03.986Z,5.49
2023-05-17T00:34:14.709Z,5.47
2023-05-17T00:34:25.430Z,5.47
2023-05-17T00:34:37.205Z,5.47
2023-05-17T00:34:48.944Z,5.47
2023-05-17T00:35:00.694Z,5.45
2023-05-17T00:35:11.492Z,5.44
2023-05-17T00:35:22.429Z,5.44
2023-05-17T00:35:33.165Z,5.44
2023-05-17T00:35:43.884Z,5.42
2023-05-17T00:35:54.631Z,5.42
2023-05-17T00:36:07.807Z,5.41
2023-05-17T00:36:18.483Z,5.40
2023-05-17T00:36:29.203Z,5.38
2023-05-17T00:36:40.914Z,5.38
2023-05-17T00:36:53.341Z,5.37
2023-05-17T00:37:06.516Z,5.37
2023-05-17T00:37:17.263Z,5.35
2023-05-17T00:37:28.066Z,5.35
2023-05-17T00:37:38.793Z,5.33
2023-05-17T00:37:49.509Z,5.33
2023-05-17T00:38:01.444Z,5.35
2023-05-17T00:38:13.195Z,5.33
2023-05-17T00:38:25.094Z,5.32
2023-05-17T00:38:38.778Z,5.30
2023-05-17T00:38:50.941Z,5.32
2023-05-17T00:39:01.682Z,5.30
2023-05-17T00:39:12.444Z,5.30
2023-05-17T00:39:24.631Z,5.30
2023-05-17T00:39:36.323Z,5.29
2023-05-17T00:39:47.095Z,5.29
2023-05-17T00:39:59.534Z,5.27
2023-05-17T00:40:11.217Z,5.27
2023-05-17T00:40:23.413Z,5.27
2023-05-17T00:40:34.142Z,5.29
2023-05-17T00:40:44.881Z,5.29
2023-05-17T00:40:55.567Z,5.29
2023-05-17T00:41:06.377Z,5.29
2023-05-17T00:41:17.104Z,5.29
2023-05-17T00:41:27.827Z,5.30
2023-05-17T00:41:40.262Z,5.29
2023-05-17T00:41:51.954Z,5.29
2023-05-17T00:42:02.664Z,5.29
2023-05-17T00:42:14.385Z,5.29
2023-05-17T00:42:26.079Z,5.29
2023-05-17T00:42:36.856Z,5.30
2023-05-17T00:42:49.573Z,5.29
2023-05-17T00:43:00.350Z,5.29
2023-05-17T00:43:12.032Z,5.29
2023-05-17T00:43:22.768Z,5.30
2023-05-17T00:43:33.485Z,5.29
2023-05-17T00:43:45.184Z,5.30
2023-05-17T00:43:55.906Z,5.29
2023-05-17T00:44:06.672Z,5.29
2023-05-17T00:44:17.454Z,5.27
2023-05-17T00:44:29.611Z,5.29
2023-05-17T00:44:40.382Z,5.27
2023-05-17T00:44:51.085Z,5.29
2023-05-17T00:45:01.833Z,5.27
2023-05-17T00:45:12.584Z,5.27
2023-05-17T00:45:23.362Z,5.26
2023-05-17T00:45:34.127Z,5.27
2023-05-17T00:45:44.890Z,5.27
2023-05-17T00:45:57.087Z,5.26
2023-05-17T00:46:07.776Z,5.26
2023-05-17T00:46:18.533Z,5.23
2023-05-17T00:46:30.227Z,5.23
2023-05-17T00:46:44.447Z,5.23
2023-05-17T00:46:55.164Z,5.22
2023-05-17T00:47:07.691Z,5.22
2023-05-17T00:47:19.454Z,5.20
2023-05-17T00:47:30.216Z,5.20
2023-05-17T00:47:41.084Z,5.20
2023-05-17T00:47:51.922Z,5.19
2023-05-17T00:48:02.725Z,5.17
2023-05-17T00:48:14.968Z,5.17
2023-05-17T00:48:27.662Z,5.17
2023-05-17T00:48:40.219Z,5.15
2023-05-17T00:48:52.668Z,5.15
2023-05-17T00:49:05.088Z,5.15
2023-05-17T00:49:15.769Z,5.14
2023-05-17T00:49:28.313Z,5.12
2023-05-17T00:49:39.056Z,5.12
2023-05-17T00:49:49.800Z,5.12
2023-05-17T00:50:04.018Z,5.14
2023-05-17T00:50:15.689Z,5.12
2023-05-17T00:50:26.396Z,5.12
2023-05-17T00:50:38.805Z,5.12
2023-05-17T00:50:51.025Z,5.12
2023-05-17T00:51:03.698Z,5.11
2023-05-17T00:51:14.432Z,5.09
2023-05-17T00:51:25.186Z,5.09
2023-05-17T00:51:36.897Z,5.09
2023-05-17T00:51:49.815Z,5.09
2023-05-17T00:52:02.320Z,5.09
2023-05-17T00:52:14.782Z,5.09
2023-05-17T00:52:26.470Z,5.11
2023-05-17T00:52:37.173Z,5.08
2023-05-17T00:52:47.897Z,5.11
2023-05-17T00:52:59.829Z,5.08
2023-05-17T00:53:12.242Z,5.08
2023-05-17T00:53:22.953Z,5.08
2023-05-17T00:53:33.734Z,5.06
2023-05-17T00:53:44.510Z,5.08
2023-05-17T00:53:55.227Z,5.06
2023-05-17T00:54:07.636Z,5.06
2023-05-17T00:54:18.346Z,5.08
2023-05-17T00:54:30.743Z,5.05
2023-05-17T00:54:43.203Z,5.04
2023-05-17T00:54:56.358Z,5.04
2023-05-17T00:55:08.085Z,5.04
2023-05-17T00:55:19.832Z,5.04
2023-05-17T00:55:30.796Z,5.02
2023-05-17T00:55:42.502Z,5.02
2023-05-17T00:55:53.251Z,5.02
2023-05-17T00:56:05.227Z,5.02
2023-05-17T00:56:16.911Z,5.02
2023-05-17T00:56:27.612Z,5.02
2023-05-17T00:56:38.322Z,5.02
2023-05-17T00:56:49.038Z,5.02
2023-05-17T00:57:00.700Z,5.02
2023-05-17T00:57:13.671Z,5.04
2023-05-17T00:57:24.345Z,5.04
2023-05-17T00:57:35.056Z,5.04
2023-05-17T00:57:45.869Z,5.02
2023-05-17T00:57:58.260Z,5.04
2023-05-17T00:58:08.973Z,5.04
2023-05-17T00:58:19.669Z,5.02
2023-05-17T00:58:30.372Z,5.04
2023-05-17T00:58:41.119Z,5.02
2023-05-17T00:58:53.608Z,5.01
2023-05-17T00:59:04.280Z,5.02
2023-05-17T00:59:15.038Z,5.02
2023-05-17T00:59:27.208Z,5.02
2023-05-17T00:59:38.891Z,5.01
2023-05-17T00:59:49.590Z,5.01
2023-05-17T01:00:02.779Z,5.01
2023-05-17T01:00:13.506Z,5.01
2023-05-17T01:00:25.186Z,4.99
2023-05-17T01:00:36.880Z,4.99
2023-05-17T01:00:47.579Z,4.97
2023-05-17T01:01:00.073Z,4.99
2023-05-17T01:01:11.747Z,4.99
2023-05-17T01:01:22.489Z,4.97
2023-05-17T01:01:34.899Z,4.97
2023-05-17T01:01:48.066Z,4.96
2023-05-17T01:01:59.758Z,4.97
2023-05-17T01:02:12.939Z,4.97
2023-05-17T01:02:24.810Z,4.96
2023-05-17T01:02:36.577Z,4.96
2023-05-17T01:02:47.358Z,4.96
2023-05-17T01:02:58.188Z,4.96
2023-05-17T01:03:09.979Z,4.99
2023-05-17T01:03:20.807Z,4.96
2023-05-17T01:03:33.253Z,4.96
2023-05-17T01:03:45.002Z,4.94
2023-05-17T01:03:55.888Z,4.96
2023-05-17T01:04:06.753Z,4.94
2023-05-17T01:04:17.640Z,4.96
2023-05-17T01:04:30.186Z,4.96
2023-05-17T01:04:40.997Z,4.94
2023-05-17T01:04:51.702Z,4.96
2023-05-17T01:05:02.461Z,4.94
2023-05-17T01:05:13.170Z,4.94
2023-05-17T01:05:23.882Z,4.93
2023-05-17T01:05:35.583Z,4.94
2023-05-17T01:05:48.021Z,4.94
2023-05-17T01:06:00.451Z,4.94
2023-05-17T01:06:11.120Z,4.93
2023-05-17T01:06:22.824Z,4.93
2023-05-17T01:06:33.604Z,4.93
2023-05-17T01:06:46.005Z,4.93
2023-05-17T01:06:58.663Z,4.93
2023-05-17T01:07:09.404Z,4.91
2023-05-17T01:07:20.195Z,4.90
2023-05-17T01:07:30.891Z,4.91
2023-05-17T01:07:41.604Z,4.90
2023-05-17T01:07:52.327Z,4.91
2023-05-17T01:08:03.048Z,4.90
2023-05-17T01:08:13.768Z,4.90
2023-05-17T01:08:26.260Z,4.90
2023-05-17T01:08:37.956Z,4.88
2023-05-17T01:08:48.681Z,4.88
2023-05-17T01:09:00.879Z,4.88
2023-05-17T01:09:13.794Z,4.88
2023-05-17T01:09:24.539Z,4.88
2023-05-17T01:09:35.297Z,4.87
2023-05-17T01:09:46.029Z,4.87
2023-05-17T01:09:56.764Z,4.87
2023-05-17T01:10:07.515Z,4.87
2023-05-17T01:10:19.230Z,4.87
2023-05-17T01:10:29.944Z,4.87
2023-05-17T01:10:41.645Z,4.86
2023-05-17T01:10:53.332Z,4.86
2023-05-17T01:11:04.064Z,4.84
2023-05-17T01:11:14.820Z,4.86
2023-05-17T01:11:25.532Z,4.86
2023-05-17T01:11:36.260Z,4.84
2023-05-17T01:11:46.985Z,4.84
2023-05-17T01:11:58.693Z,4.84
2023-05-17T01:12:09.412Z,4.84
2023-05-17T01:12:20.118Z,4.84
2023-05-17T01:12:30.845Z,4.84
2023-05-17T01:12:43.341Z,4.83
2023-05-17T01:12:56.498Z,4.83
2023-05-17T01:13:07.324Z,4.83
2023-05-17T01:13:20.031Z,4.83
2023-05-17T01:13:30.747Z,4.83
2023-05-17T01:13:41.513Z,4.80
2023-05-17T01:13:53.910Z,4.80
2023-05-17T01:14:07.617Z,4.80
2023-05-17T01:14:18.331Z,4.79
2023-05-17T01:14:29.128Z,4.77
2023-05-17T01:14:39.837Z,4.77
2023-05-17T01:14:51.990Z,4.77
2023-05-17T01:15:03.737Z,4.79
2023-05-17T01:15:16.679Z,4.75
2023-05-17T01:15:28.557Z,4.79
2023-05-17T01:15:39.430Z,4.79
2023-05-17T01:15:51.132Z,4.77
2023-05-17T01:16:02.907Z,4.77
2023-05-17T01:16:14.631Z,4.79
2023-05-17T01:16:26.819Z,4.79
2023-05-17T01:16:38.764Z,4.77
2023-05-17T01:16:50.486Z,4.79
2023-05-17T01:17:02.899Z,4.77
2023-05-17T01:17:13.681Z,4.77
2023-05-17T01:17:26.155Z,4.75
2023-05-17T01:17:36.993Z,4.75
2023-05-17T01:17:49.453Z,4.74
2023-05-17T01:18:00.341Z,4.75
2023-05-17T01:18:11.301Z,4.74
2023-05-17T01:18:23.789Z,4.74
2023-05-17T01:18:36.381Z,4.72
2023-05-17T01:18:47.412Z,4.72
2023-05-17T01:18:59.320Z,4.71
2023-05-17T01:19:11.702Z,4.71
2023-05-17T01:19:25.468Z,4.71
2023-05-17T01:19:37.242Z,4.69
2023-05-17T01:19:50.505Z,4.69
2023-05-17T01:20:01.426Z,4.69
2023-05-17T01:20:13.801Z,4.68
2023-05-17T01:20:27.078Z,4.68
2023-05-17T01:20:39.543Z,4.68
2023-05-17T01:20:53.172Z,4.67
2023-05-17T01:21:03.904Z,4.65
2023-05-17T01:21:14.650Z,4.67
2023-05-17T01:21:25.404Z,4.65
2023-05-17T01:21:38.080Z,4.67
2023-05-17T01:21:48.786Z,4.65
2023-05-17T01:21:59.509Z,4.62
2023-05-17T01:22:13.643Z,4.62
2023-05-17T01:22:24.380Z,4.62
2023-05-17T01:22:35.090Z,4.62
2023-05-17T01:22:45.844Z,4.61
2023-05-17T01:22:58.260Z,4.61
2023-05-17T01:23:10.987Z,4.61
2023-05-17T01:23:21.687Z,4.61
2023-05-17T01:23:32.484Z,4.59
2023-05-17T01:23:43.266Z,4.59
2023-05-17T01:23:54.050Z,4.56
2023-05-17T01:24:04.734Z,4.56
2023-05-17T01:24:15.512Z,4.57
2023-05-17T01:24:26.204Z,4.56
2023-05-17T01:24:36.917Z,4.56
2023-05-17T01:24:47.646Z,4.56
2023-05-17T01:24:58.361Z,4.53
2023-05-17T01:25:10.773Z,4.54
2023-05-17T01:25:21.501Z,4.51
2023-05-17T01:25:32.288Z,4.51
2023-05-17T01:25:42.961Z,4.51
2023-05-17T01:25:54.670Z,4.50
2023-05-17T01:26:05.421Z,4.51
2023-05-17T01:26:16.177Z,4.49
2023-05-17T01:26:26.888Z,4.49
2023-05-17T01:26:37.839Z,4.50
2023-05-17T01:26:50.273Z,4.47
2023-05-17T01:27:03.391Z,4.47
2023-05-17T01:27:14.186Z,4.47
2023-05-17T01:27:26.599Z,4.46
2023-05-17T01:27:37.302Z,4.46
2023-05-17T01:27:49.270Z,4.46
2023-05-17T01:28:00.969Z,4.44
2023-05-17T01:28:11.693Z,4.46
2023-05-17T01:28:23.425Z,4.46
2023-05-17T01:28:34.184Z,4.44
2023-05-17T01:28:45.924Z,4.46
2023-05-17T01:28:58.335Z,4.44
2023-05-17T01:29:09.077Z,4.43
2023-05-17T01:29:22.237Z,4.44
2023-05-17T01:29:33.910Z,4.44
2023-05-17T01:29:44.779Z,4.43
2023-05-17T01:29:55.527Z,4.43
2023-05-17T01:30:06.246Z,4.43
2023-05-17T01:30:18.039Z,4.44
2023-05-17T01:30:28.755Z,4.42
2023-05-17T01:30:39.512Z,4.42
2023-05-17T01:30:51.892Z,4.43
2023-05-17T01:31:02.625Z,4.43
2023-05-17T01:31:13.356Z,4.43
2023-05-17T01:31:24.099Z,4.43
2023-05-17T01:31:34.832Z,4.42
2023-05-17T01:31:45.585Z,4.42
2023-05-17T01:31:56.344Z,4.42
2023-05-17T01:32:08.757Z,4.39
2023-05-17T01:32:21.147Z,4.39
2023-05-17T01:32:31.975Z,4.39
2023-05-17T01:32:42.730Z,4.38
2023-05-17T01:32:53.642Z,4.39
2023-05-17T01:33:04.535Z,4.39
2023-05-17T01:33:17.834Z,4.39
2023-05-17T01:33:31.735Z,4.42
2023-05-17T01:33:42.650Z,4.42
2023-05-17T01:33:54.460Z,4.43
2023-05-17T01:34:05.228Z,4.44
2023-05-17T01:34:18.438Z,4.46
2023-05-17T01:34:30.154Z,4.46
2023-05-17T01:34:43.338Z,4.46
2023-05-17T01:34:55.040Z,4.47
2023-05-17T01:35:06.027Z,4.47
2023-05-17T01:35:16.795Z,4.49
2023-05-17T01:35:27.819Z,4.51
2023-05-17T01:35:39.670Z,4.51
2023-05-17T01:35:52.858Z,4.53
2023-05-17T01:36:03.578Z,4.53
2023-05-17T01:36:16.114Z,4.54
2023-05-17T01:36:29.300Z,4.54
2023-05-17T01:36:40.030Z,4.56
2023-05-17T01:36:50.762Z,4.57
2023-05-17T01:37:01.480Z,4.57
2023-05-17T01:37:13.909Z,4.57
2023-05-17T01:37:25.620Z,4.59
2023-05-17T01:37:38.523Z,4.59
2023-05-17T01:37:49.254Z,4.61
2023-05-17T01:38:01.013Z,4.61
2023-05-17T01:38:12.684Z,4.61
2023-05-17T01:38:23.425Z,4.62
2023-05-17T01:38:35.615Z,4.61
2023-05-17T01:38:48.022Z,4.64
2023-05-17T01:38:59.722Z,4.65
2023-05-17T01:39:10.440Z,4.67
2023-05-17T01:39:22.870Z,4.67
2023-05-17T01:39:36.551Z,4.67
2023-05-17T01:39:47.280Z,4.69
2023-05-17T01:39:58.013Z,4.69
2023-05-17T01:40:09.714Z,4.71
2023-05-17T01:40:21.462Z,4.72
2023-05-17T01:40:34.002Z,4.74
2023-05-17T01:40:46.428Z,4.74
2023-05-17T01:40:58.598Z,4.75
2023-05-17T01:41:09.329Z,4.77
2023-05-17T01:41:21.790Z,4.79
2023-05-17T01:41:33.472Z,4.79
2023-05-17T01:41:45.886Z,4.83
2023-05-17T01:41:58.803Z,4.83
2023-05-17T01:42:09.514Z,4.84
2023-05-17T01:42:21.324Z,4.84
2023-05-17T01:42:32.067Z,4.86
2023-05-17T01:42:42.810Z,4.86
2023-05-17T01:42:55.225Z,4.88
2023-05-17T01:43:05.973Z,4.88
2023-05-17T01:43:18.186Z,4.91
2023-05-17T01:43:28.972Z,4.91
2023-05-17T01:43:40.664Z,4.93
2023-05-17T01:43:53.361Z,4.94
2023-05-17T01:44:04.150Z,4.96
2023-05-17T01:44:14.878Z,4.97
2023-05-17T01:44:27.286Z,4.99
2023-05-17T01:44:38.028Z,4.99
2023-05-17T01:44:50.489Z,5.01
2023-05-17T01:45:02.901Z,5.02
2023-05-17T01:45:14.576Z,5.04
2023-05-17T01:45:26.559Z,5.04
2023-05-17T01:45:37.489Z,5.05
2023-05-17T01:45:48.290Z,5.08
2023-05-17T01:45:58.990Z,5.09
2023-05-17T01:46:09.716Z,5.08
2023-05-17T01:46:22.163Z,5.11
2023-05-17T01:46:34.579Z,5.12
2023-05-17T01:46:46.230Z,5.12
2023-05-17T01:46:57.948Z,5.12
2023-05-17T01:47:08.697Z,5.14
2023-05-17T01:47:19.415Z,5.15
2023-05-17T01:47:31.201Z,5.17
2023-05-17T01:47:43.162Z,5.19
2023-05-17T01:47:53.922Z,5.19
2023-05-17T01:48:04.696Z,5.19
2023-05-17T01:48:15.856Z,5.20
2023-05-17T01:48:26.722Z,5.22
2023-05-17T01:48:38.493Z,5.23
2023-05-17T01:48:50.232Z,5.23
2023-05-17T01:49:01.194Z,5.26
2023-05-17T01:49:12.028Z,5.27
2023-05-17T01:49:24.209Z,5.27
2023-05-17T01:49:36.648Z,5.27
2023-05-17T01:49:47.350Z,5.30
2023-05-17T01:49:58.099Z,5.32
2023-05-17T01:50:08.871Z,5.32
2023-05-17T01:50:19.666Z,5.33
2023-05-17T01:50:30.381Z,5.35
2023-05-17T01:50:41.132Z,5.37
2023-05-17T01:50:54.291Z,5.37
2023-05-17T01:51:04.991Z,5.40
2023-05-17T01:51:17.427Z,5.38
2023-05-17T01:51:30.134Z,5.40
2023-05-17T01:51:42.580Z,5.42
2023-05-17T01:51:53.345Z,5.42
2023-05-17T01:52:04.081Z,5.44
2023-05-17T01:52:15.770Z,5.44
2023-05-17T01:52:29.475Z,5.45
2023-05-17T01:52:41.924Z,5.47
2023-05-17T01:52:53.590Z,5.48
2023-05-17T01:53:04.306Z,5.49
2023-05-17T01:53:15.059Z,5.49
2023-05-17T01:53:25.769Z,5.51
2023-05-17T01:53:38.160Z,5.51
2023-05-17T01:53:48.906Z,5.52
2023-05-17T01:54:01.332Z,5.56
2023-05-17T01:54:15.059Z,5.56
2023-05-17T01:54:26.744Z,5.58
2023-05-17T01:54:37.447Z,5.58
2023-05-17T01:54:48.176Z,5.59
2023-05-17T01:55:01.349Z,5.59
2023-05-17T01:55:13.056Z,5.60
2023-05-17T01:55:24.769Z,5.62
2023-05-17T01:55:35.535Z,5.62
2023-05-17T01:55:47.230Z,5.63
2023-05-17T01:55:58.934Z,5.65
2023-05-17T01:56:09.609Z,5.66
2023-05-17T01:56:22.787Z,5.65
2023-05-17T01:56:35.221Z,5.67
2023-05-17T01:56:47.652Z,5.67
2023-05-17T01:56:58.371Z,5.67
2023-05-17T01:57:09.116Z,5.69
2023-05-17T01:57:22.277Z,5.70
2023-05-17T01:57:34.409Z,5.73
2023-05-17T01:57:45.148Z,5.74
2023-05-17T01:57:58.321Z,5.74
2023-05-17T01:58:11.245Z,5.75
2023-05-17T01:58:21.955Z,5.77
2023-05-17T01:58:32.698Z,5.78
2023-05-17T01:58:44.649Z,5.78
2023-05-17T01:58:56.341Z,5.81
2023-05-17T01:59:07.388Z,5.83
2023-05-17T01:59:19.799Z,5.83
2023-05-17T01:59:31.548Z,5.84
2023-05-17T01:59:42.290Z,5.85
2023-05-17T01:59:53.010Z,5.85
2023-05-17T02:00:04.713Z,5.87
2023-05-17T02:00:16.433Z,5.88
2023-05-17T02:00:27.184Z,5.90
2023-05-17T02:00:37.968Z,5.90
2023-05-17T02:00:49.688Z,5.92
2023-05-17T02:01:01.890Z,5.92
2023-05-17T02:01:12.576Z,5.93
2023-05-17T02:01:24.289Z,5.95
2023-05-17T02:01:35.088Z,5.96
2023-05-17T02:01:46.783Z,5.96
2023-05-17T02:01:59.239Z,5.99
2023-05-17T02:02:09.961Z,5.98
2023-05-17T02:02:20.714Z,5.99
2023-05-17T02:02:31.418Z,5.99
2023-05-17T02:02:42.273Z,6.01
2023-05-17T02:02:53.089Z,6.02
2023-05-17T02:03:03.817Z,6.03
2023-05-17T02:03:17.021Z,6.02
2023-05-17T02:03:27.844Z,6.05
2023-05-17T02:03:38.614Z,6.05
2023-05-17T02:03:49.375Z,6.05
2023-05-17T02:04:01.797Z,6.06
2023-05-17T02:04:12.587Z,6.08
2023-05-17T02:04:25.123Z,6.08
2023-05-17T02:04:37.194Z,6.10
2023-05-17T02:04:49.887Z,6.10
2023-05-17T02:05:02.101Z,6.11
2023-05-17T02:05:13.853Z,6.13
2023-05-17T02:05:26.443Z,6.13
2023-05-17T02:05:38.332Z,6.13
2023-05-17T02:05:51.499Z,6.14
2023-05-17T02:06:03.299Z,6.14
2023-05-17T02:06:14.058Z,6.14
2023-05-17T02:06:25.737Z,6.16
2023-05-17T02:06:36.451Z,6.17
2023-05-17T02:06:47.202Z,6.17
2023-05-17T02:06:57.946Z,6.17
2023-05-17T02:07:08.674Z,6.17
2023-05-17T02:07:19.368Z,6.19
2023-05-17T02:07:31.795Z,6.19
2023-05-17T02:07:43.493Z,6.19
2023-05-17T02:07:55.253Z,6.20
2023-05-17T02:08:06.017Z,6.20
2023-05-17T02:08:18.674Z,6.20
2023-05-17T02:08:29.436Z,6.21
2023-05-17T02:08:41.606Z,6.20
2023-05-17T02:08:52.302Z,6.24
2023-05-17T02:09:03.083Z,6.21
2023-05-17T02:09:15.897Z,6.24
2023-05-17T02:09:26.625Z,6.24
2023-05-17T02:09:37.381Z,6.25
2023-05-17T02:09:49.065Z,6.24
2023-05-17T02:10:01.255Z,6.25
2023-05-17T02:10:11.989Z,6.25
2023-05-17T02:10:24.454Z,6.25
2023-05-17T02:10:35.139Z,6.27
2023-05-17T02:10:45.830Z,6.27
2023-05-17T02:10:56.558Z,6.27
2023-05-17T02:11:08.250Z,6.27
2023-05-17T02:11:18.988Z,6.28
2023-05-17T02:11:29.704Z,6.27
2023-05-17T02:11:41.889Z,6.28
2023-05-17T02:11:52.600Z,6.30
2023-05-17T02:12:03.316Z,6.30
2023-05-17T02:12:15.702Z,6.30
2023-05-17T02:12:28.115Z,6.30
2023-05-17T02:12:38.859Z,6.32
2023-05-17T02:12:49.558Z,6.32
2023-05-17T02:13:00.302Z,6.33
2023-05-17T02:13:12.734Z,6.33
2023-05-17T02:13:23.429Z,6.33
2023-05-17T02:13:34.144Z,6.35
2023-05-17T02:13:44.902Z,6.36
2023-05-17T02:13:56.859Z,6.35
2023-05-17T02:14:08.556Z,6.35
2023-05-17T02:14:20.747Z,6.36
2023-05-17T02:14:31.475Z,6.36
2023-05-17T02:14:43.928Z,6.38
2023-05-17T02:14:56.864Z,6.38
2023-05-17T02:15:07.602Z,6.38
2023-05-17T02:15:18.315Z,6.39
2023-05-17T02:15:31.994Z,6.38
2023-05-17T02:15:45.156Z,6.39
2023-05-17T02:15:56.856Z,6.39
2023-05-17T02:16:09.788Z,6.40
2023-05-17T02:16:20.554Z,6.40
2023-05-17T02:16:32.787Z,6.40
2023-05-17T02:16:44.503Z,6.42
2023-05-17T02:16:55.216Z,6.42
2023-05-17T02:17:06.916Z,6.42
2023-05-17T02:17:17.752Z,6.43
2023-05-17T02:17:30.508Z,6.43
2023-05-17T02:17:41.395Z,6.42
2023-05-17T02:17:53.844Z,6.43
2023-05-17T02:18:05.803Z,6.43
2023-05-17T02:18:18.295Z,6.43
2023-05-17T02:18:31.338Z,6.45
2023-05-17T02:18:43.751Z,6.43
2023-05-17T02:18:55.560Z,6.45
2023-05-17T02:19:06.313Z,6.45
2023-05-17T02:19:18.804Z,6.46
2023-05-17T02:19:29.694Z,6.46
2023-05-17T02:19:41.963Z,6.45
2023-05-17T02:19:55.617Z,6.48
2023-05-17T02:20:07.334Z,6.46
2023-05-17T02:20:19.544Z,6.46
2023-05-17T02:20:33.751Z,6.46
2023-05-17T02:20:46.198Z,6.46
2023-05-17T02:20:57.927Z,6.48
2023-05-17T02:21:09.841Z,6.48
2023-05-17T02:21:20.548Z,6.46
2023-05-17T02:21:33.491Z,6.48
2023-05-17T02:21:44.288Z,6.48
2023-05-17T02:21:58.990Z,6.50
2023-05-17T02:22:09.724Z,6.50
2023-05-17T02:22:20.441Z,6.48
2023-05-17T02:22:32.166Z,6.50
2023-05-17T02:22:44.352Z,6.50
2023-05-17T02:22:56.265Z,6.50
2023-05-17T02:23:07.963Z,6.50
2023-05-17T02:23:18.728Z,6.50
2023-05-17T02:23:29.417Z,6.50
2023-05-17T02:23:41.842Z,6.51
2023-05-17T02:23:52.559Z,6.51
2023-05-17T02:24:03.318Z,6.51
2023-05-17T02:24:13.990Z,6.51
2023-05-17T02:24:26.419Z,6.51
2023-05-17T02:24:37.163Z,6.50
2023-05-17T02:24:47.852Z,6.51
2023-05-17T02:25:00.283Z,6.53
2023-05-17T02:25:12.000Z,6.53
2023-05-17T02:25:24.411Z,6.53
2023-05-17T02:25:36.090Z,6.53
2023-05-17T02:25:46.816Z,6.51
2023-05-17T02:26:00.475Z,6.54
2023-05-17T02:26:11.233Z,6.55
2023-05-17T02:26:23.382Z,6.54
2023-05-17T02:26:34.100Z,6.53
2023-05-17T02:26:44.841Z,6.53
2023-05-17T02:26:57.025Z,6.53
2023-05-17T02:27:07.956Z,6.53
2023-05-17T02:27:20.500Z,6.54
2023-05-17T02:27:33.460Z,6.54
2023-05-17T02:27:45.210Z,6.54
2023-05-17T02:27:56.903Z,6.54
2023-05-17T02:28:07.620Z,6.54
2023-05-17T02:28:18.448Z,6.54
2023-05-17T02:28:30.153Z,6.55
2023-05-17T02:28:42.587Z,6.54
2023-05-17T02:28:54.270Z,6.53
2023-05-17T02:29:05.981Z,6.54
2023-05-17T02:29:18.426Z,6.54
2023-05-17T02:29:30.598Z,6.55
2023-05-17T02:29:41.318Z,6.54
2023-05-17T02:29:52.080Z,6.55
2023-05-17T02:30:03.831Z,6.54
2023-05-17T02:30:15.790Z,6.54
2023-05-17T02:30:30.228Z,6.53
2023-05-17T02:30:41.994Z,6.54
2023-05-17T02:30:52.775Z,6.54
2023-05-17T02:31:05.690Z,6.53
2023-05-17T02:31:17.395Z,6.54
2023-05-17T02:31:28.089Z,6.54
2023-05-17T02:31:41.037Z,6.54
2023-05-17T02:31:51.733Z,6.54
2023-05-17T02:32:02.421Z,6.53
2023-05-17T02:32:14.091Z,6.54
2023-05-17T02:32:25.858Z,6.53
2023-05-17T02:32:36.610Z,6.51
2023-05-17T02:32:48.446Z,6.53
2023-05-17T02:33:00.921Z,6.53